createdAt,value
2019-03-27T00:02:04.219Z,4
2019-03-27T00:07:09.320Z,4
2019-03-27T00:12:14.479Z,3.9
2019-03-27T00:17:19.565Z,3.9
2019-03-27T00:22:25.160Z,3.9
2019-03-27T00:27:30.408Z,4
2019-03-27T00:32:35.793Z,4.2
2019-03-27T00:37:40.975Z,4.3
2019-03-27T00:42:44.976Z,4.5
2019-03-27T00:47:50.147Z,4.6
2019-03-27T00:52:53.831Z,4.6
2019-03-27T00:57:59.221Z,4.7
2019-03-27T01:03:03.249Z,4.7
2019-03-27T01:08:08.546Z,4.6
2019-03-27T01:13:14.088Z,4.6
2019-03-27T01:18:19.752Z,4.5
2019-03-27T01:23:25.149Z,4.5
2019-03-27T01:28:30.150Z,4.5
2019-03-27T01:33:36.915Z,4.5
2019-03-27T01:38:42.542Z,4.5
2019-03-27T01:43:48.093Z,4.5
2019-03-27T01:48:53.188Z,4.5
2019-03-27T01:53:58.585Z,4.5
2019-03-27T01:59:03.709Z,4.5
2019-03-27T02:04:07.678Z,4.5
2019-03-27T02:09:13.202Z,4.6
2019-03-27T02:14:22.011Z,4.9
2019-03-27T02:19:19.900Z,4.9
2019-03-27T02:24:25.490Z,5.1
2019-03-27T02:29:31.196Z,5.2
2019-03-27T02:34:36.585Z,5.2
2019-03-27T02:39:41.959Z,5.2
2019-03-27T02:44:47.208Z,5.2
2019-03-27T02:49:52.586Z,5.2
2019-03-27T02:54:57.738Z,5.2
2019-03-27T03:00:03.067Z,5.1
2019-03-27T03:05:08.493Z,5
2019-03-27T03:10:13.995Z,5
2019-03-27T03:15:19.317Z,5
2019-03-27T03:20:24.529Z,5
2019-03-27T03:25:29.891Z,4.9
2019-03-27T03:30:34.995Z,4.8
2019-03-27T03:35:40.875Z,4.7
2019-03-27T03:40:46.179Z,4.6
2019-03-27T03:45:51.853Z,4.7
2019-03-27T03:50:57.566Z,4.6
2019-03-27T03:56:02.901Z,4.6
2019-03-27T04:01:08.572Z,4.5
2019-03-27T04:06:14.173Z,4.5
2019-03-27T04:11:19.384Z,4.5
2019-03-27T04:16:24.676Z,4.5
2019-03-27T04:21:30.009Z,4.5
2019-03-27T04:26:36.114Z,4.3
2019-03-27T04:31:40.100Z,4.3
2019-03-27T04:36:45.490Z,4.3
2019-03-27T04:41:50.766Z,4.3
2019-03-27T04:46:56.188Z,4.3
2019-03-27T04:52:01.277Z,4.3
2019-03-27T04:57:06.545Z,4.3
2019-03-27T05:02:12.132Z,4.4
2019-03-27T05:07:20.729Z,4.6
2019-03-27T05:12:25.927Z,4.8
2019-03-27T05:17:47.652Z,5.3
2019-03-27T05:22:44.606Z,5.4
2019-03-27T05:27:50.141Z,5.4
2019-03-27T05:32:54.044Z,5.6
2019-03-27T05:37:59.285Z,5.7
2019-03-27T05:43:04.492Z,5.7
2019-03-27T05:48:11.046Z,5.7
2019-03-27T05:53:16.343Z,5.8
2019-03-27T05:58:21.843Z,6.1
2019-03-27T06:03:26.959Z,6.7
2019-03-27T06:08:32.418Z,7.4
2019-03-27T06:13:37.452Z,8.1
2019-03-27T06:18:44.159Z,8.5
2019-03-27T06:23:49.444Z,8.9
2019-03-27T06:28:55.791Z,8.9
2019-03-27T06:39:03.096Z,8.4
2019-03-27T06:44:08.259Z,8.2
2019-03-27T06:49:13.787Z,8.5
2019-03-27T06:54:19.075Z,9.2
2019-03-27T06:59:25.261Z,9.9
2019-03-27T07:04:30.322Z,10.7
2019-03-27T07:09:36.231Z,11.6
2019-03-27T07:14:41.341Z,12.4
2019-03-27T07:19:46.547Z,13
2019-03-27T07:24:51.509Z,13.4
2019-03-27T07:29:57.893Z,13.3
2019-03-27T07:35:01.418Z,13.8
2019-03-27T07:40:07.485Z,14.2
2019-03-27T07:45:12.618Z,14.5
2019-03-27T07:50:16.888Z,14.9
2019-03-27T07:55:21.875Z,14.7
2019-03-27T08:00:26.942Z,15
2019-03-27T08:05:32.033Z,15.9
2019-03-27T08:10:37.350Z,16.7
2019-03-27T08:15:42.850Z,15.6
2019-03-27T08:20:48.490Z,15.5
2019-03-27T08:25:53.658Z,15.6
2019-03-27T08:30:58.863Z,15.7
2019-03-27T08:36:03.925Z,15.8
2019-03-27T08:41:09.149Z,15.3
2019-03-27T08:46:14.283Z,15.7
2019-03-27T08:51:19.411Z,17.1
2019-03-27T08:56:24.351Z,18.9
2019-03-27T09:01:29.656Z,19.2
2019-03-27T09:06:36.201Z,19.2
2019-03-27T09:11:41.248Z,19.2
2019-03-27T09:16:46.524Z,20
2019-03-27T09:21:51.864Z,20.9
2019-03-27T09:26:56.935Z,19.5
2019-03-27T09:32:01.915Z,19.3
2019-03-27T09:37:07.244Z,18.5
2019-03-27T09:42:13.025Z,19.6
2019-03-27T09:47:18.772Z,20.3
2019-03-27T09:52:24.445Z,19.6
2019-03-27T09:57:29.479Z,19.2
2019-03-27T10:02:35.400Z,18.5
2019-03-27T10:07:40.424Z,17.4
2019-03-27T10:12:45.615Z,17
2019-03-27T10:17:50.553Z,18.7
2019-03-27T10:22:55.635Z,21.4
2019-03-27T10:28:01.192Z,24.4
2019-03-27T10:33:06.342Z,25.9
2019-03-27T10:38:11.723Z,26.5
2019-03-27T10:43:16.855Z,26.7
2019-03-27T10:48:25.014Z,27
2019-03-27T10:53:32.430Z,22.6
2019-03-27T10:58:36.517Z,22.6
2019-03-27T11:03:40.011Z,21.8
2019-03-27T11:08:45.400Z,20.4
2019-03-27T11:13:50.475Z,18.6
2019-03-27T11:18:55.550Z,17.6
2019-03-27T11:24:00.860Z,17.2
2019-03-27T11:29:06.266Z,17.1
2019-03-27T11:34:11.516Z,18.6
2019-03-27T11:39:16.625Z,20.8
2019-03-27T11:44:22.383Z,22
2019-03-27T11:49:26.170Z,22.2
2019-03-27T11:54:31.425Z,22
2019-03-27T11:59:36.861Z,21
2019-03-27T12:04:42.379Z,19.6
2019-03-27T12:09:47.872Z,18.5
2019-03-27T12:14:54.305Z,18.5
2019-03-27T12:19:59.563Z,18.5
2019-03-27T12:40:22.226Z,16.8
2019-03-27T12:45:29.725Z,16.3
2019-03-27T12:50:35.251Z,16
2019-03-27T12:55:40.393Z,17.7
2019-03-27T13:00:45.335Z,19.3
2019-03-27T13:05:51.174Z,19.9
2019-03-27T13:10:56.229Z,19.6
2019-03-27T13:15:59.975Z,18.5
2019-03-27T13:21:08.673Z,17.2
2019-03-27T13:26:14.002Z,16.1
2019-03-27T13:31:19.304Z,15.2
2019-03-27T13:36:25.240Z,14.4
2019-03-27T13:41:29.397Z,13.7
2019-03-27T13:46:34.551Z,13.7
2019-03-27T13:51:42.856Z,13.9
2019-03-27T13:56:46.640Z,13.9
2019-03-27T14:06:55.529Z,14.1
2019-03-27T14:12:01.175Z,14.2
2019-03-27T14:17:06.547Z,14
2019-03-27T14:22:11.646Z,13.9
2019-03-27T14:27:16.656Z,13.5
2019-03-27T14:32:21.868Z,13.2
2019-03-27T14:37:27.071Z,13.1
2019-03-27T14:42:32.788Z,12.9
2019-03-27T14:47:38.408Z,12.9
2019-03-27T14:52:43.752Z,12.9
2019-03-27T14:57:49.792Z,12.8
2019-03-27T15:02:54.727Z,12.7
2019-03-27T15:08:00.177Z,12.6
2019-03-27T15:13:08.459Z,12.6
2019-03-27T15:18:13.988Z,12.5
2019-03-27T15:23:19.076Z,12.4
2019-03-27T15:28:24.228Z,12.4
2019-03-27T15:33:29.430Z,12.4
2019-03-27T15:38:35.244Z,12.3
2019-03-27T15:43:40.376Z,12.3
2019-03-27T15:48:45.929Z,12.3
2019-03-27T15:53:51.280Z,12.2
2019-03-27T15:58:58.440Z,12.1
2019-03-27T16:04:03.619Z,12.1
2019-03-27T16:09:09.506Z,12.1
2019-03-27T16:14:14.801Z,12
2019-03-27T16:19:20.604Z,12
2019-03-27T16:24:26.136Z,11.8
2019-03-27T16:29:31.866Z,11.5
2019-03-27T16:34:37.155Z,11.6
2019-03-27T16:39:42.580Z,11.4
2019-03-27T16:44:47.749Z,11.4
2019-03-27T16:49:53.568Z,11.3
2019-03-27T16:54:58.908Z,11.2
2019-03-27T17:00:04.035Z,11.1
2019-03-27T17:05:07.816Z,11
2019-03-27T17:10:13.251Z,10.9
2019-03-27T17:15:18.432Z,10.8
2019-03-27T17:20:22.840Z,10.7
2019-03-27T17:25:26.906Z,10.5
2019-03-27T17:30:33.820Z,10.4
2019-03-27T17:35:41.317Z,10.3
2019-03-27T17:40:49.525Z,10.1
2019-03-27T17:45:47.443Z,10.1
2019-03-27T17:50:52.676Z,10
2019-03-27T17:55:57.761Z,9.9
2019-03-27T18:01:03.079Z,9.8
2019-03-27T18:06:13.066Z,9.7
2019-03-27T18:11:19.554Z,9.7
2019-03-27T18:16:27.162Z,9.6
2019-03-27T18:21:32.807Z,9.6
2019-03-27T18:31:41.749Z,9.4
2019-03-27T18:36:47.059Z,9.2
2019-03-27T18:46:56.650Z,8.9
2019-03-27T18:52:04.933Z,8.7
2019-03-27T18:57:10.362Z,8.7
2019-03-27T19:02:15.720Z,8.6
2019-03-27T19:07:22.514Z,8.5
2019-03-27T19:12:28.998Z,8.5
2019-03-27T19:17:34.184Z,8.5
2019-03-27T19:22:38.622Z,8.5
2019-03-27T19:27:44.211Z,8.5
2019-03-27T19:32:47.836Z,8.5
2019-03-27T19:37:54.595Z,8.3
2019-03-27T19:42:59.931Z,8.3
2019-03-27T19:48:05.225Z,8.3
2019-03-27T19:53:10.396Z,8.2
2019-03-27T19:58:20.541Z,8.2
2019-03-27T20:03:26.079Z,8.1
2019-03-27T20:08:31.177Z,8.1
2019-03-27T20:13:31.408Z,8
2019-03-27T20:18:34.941Z,8
2019-03-27T20:23:40.199Z,8
2019-03-27T20:28:45.549Z,7.9
2019-03-27T20:33:54.549Z,7.8
2019-03-27T20:38:59.787Z,7.7
2019-03-27T20:44:05.277Z,7.7
2019-03-27T20:49:10.768Z,7.6
2019-03-27T20:54:16.406Z,7.6
2019-03-27T20:59:21.798Z,7.4
2019-03-27T21:04:25.826Z,7
2019-03-27T21:09:31.331Z,6.7
2019-03-27T21:14:39.436Z,6.5
2019-03-27T21:19:46.337Z,6.4
2019-03-27T21:24:51.613Z,6.5
2019-03-27T21:29:56.668Z,6.6
2019-03-27T21:35:01.980Z,6.6
2019-03-27T21:40:10.051Z,6.7
2019-03-27T21:45:15.622Z,6.7
2019-03-27T21:50:20.818Z,6.7
2019-03-27T21:55:26.207Z,6.6
2019-03-27T22:00:31.348Z,6.6
2019-03-27T22:05:36.541Z,6.5
2019-03-27T22:10:41.728Z,6.5
2019-03-27T22:15:46.953Z,6.4
2019-03-27T22:20:52.027Z,6.3
2019-03-27T22:25:57.640Z,6.2
2019-03-27T22:31:02.814Z,6.2
2019-03-27T22:36:08.749Z,6.1
2019-03-27T22:46:18.134Z,6
2019-03-27T22:51:23.398Z,6
2019-03-27T22:56:28.654Z,6
2019-03-27T23:01:33.698Z,5.9
2019-03-27T23:06:38.914Z,5.9
2019-03-27T23:11:43.988Z,5.9
2019-03-27T23:16:49.360Z,5.8
2019-03-27T23:21:54.502Z,5.6
2019-03-27T23:26:58.720Z,5.5
2019-03-27T23:32:04.169Z,5.5
2019-03-27T23:37:09.430Z,5.4
2019-03-27T23:42:17.983Z,5.3
2019-03-27T23:47:23.184Z,5.3
2019-03-27T23:52:28.199Z,5.3
2019-03-27T23:57:33.478Z,5.3
